createdAt,value
2019-05-23T00:00:49.730Z,13.40
2019-05-23T00:03:21.802Z,13.40
2019-05-23T00:05:55.023Z,13.30
2019-05-23T00:08:27.502Z,13.30
2019-05-23T00:11:06.340Z,13.30
2019-05-23T00:13:49.941Z,13.30
2019-05-23T00:16:23.267Z,13.30
2019-05-23T00:18:53.001Z,13.30
2019-05-23T00:21:22.720Z,13.20
2019-05-23T00:23:52.021Z,13.20
2019-05-23T00:26:21.802Z,13.20
2019-05-23T00:29:08.766Z,13.20
2019-05-23T00:31:30.194Z,13.10
2019-05-23T00:33:59.936Z,13.10
2019-05-23T00:36:31.216Z,13.10
2019-05-23T00:39:00.811Z,13.10
2019-05-23T00:41:30.505Z,13.10
2019-05-23T00:44:00.389Z,13.00
2019-05-23T00:46:29.982Z,13.00
2019-05-23T00:49:00.280Z,13.00
2019-05-23T00:51:29.680Z,13.00
2019-05-23T00:54:01.252Z,12.90
2019-05-23T00:56:30.384Z,12.90
2019-05-23T00:58:59.499Z,12.90
2019-05-23T01:01:29.013Z,12.80
2019-05-23T01:03:58.985Z,12.80
2019-05-23T01:06:28.062Z,12.80
2019-05-23T01:08:58.461Z,12.80
2019-05-23T01:11:28.445Z,12.70
2019-05-23T01:13:59.207Z,12.70
2019-05-23T01:16:30.565Z,12.70
2019-05-23T01:18:59.914Z,12.60
2019-05-23T01:21:54.875Z,12.60
2019-05-23T01:24:45.256Z,12.50
2019-05-23T01:27:15.243Z,12.50
2019-05-23T01:29:50.155Z,12.40
2019-05-23T01:32:56.032Z,12.50
2019-05-23T01:35:27.012Z,12.50
2019-05-23T01:37:58.150Z,12.50
2019-05-23T01:40:27.564Z,12.40
2019-05-23T01:42:58.351Z,12.40
2019-05-23T01:45:27.823Z,12.40
2019-05-23T01:47:57.720Z,12.40
2019-05-23T01:50:27.125Z,12.30
2019-05-23T01:52:57.623Z,12.30
2019-05-23T01:55:26.798Z,12.30
2019-05-23T01:57:55.885Z,12.20
2019-05-23T02:00:29.220Z,12.20
2019-05-23T02:02:59.198Z,12.20
2019-05-23T02:05:28.417Z,12.20
2019-05-23T02:07:57.561Z,12.10
2019-05-23T02:10:27.085Z,12.10
2019-05-23T02:12:56.610Z,12.10
2019-05-23T02:15:27.072Z,12.10
2019-05-23T02:17:56.903Z,12.00
2019-05-23T02:20:27.339Z,12.00
2019-05-23T02:22:56.739Z,12.00
2019-05-23T02:25:26.292Z,12.00
2019-05-23T02:27:55.463Z,12.00
2019-05-23T02:30:35.224Z,11.90
2019-05-23T02:32:56.502Z,11.90
2019-05-23T02:35:26.804Z,11.90
2019-05-23T02:38:21.694Z,11.80
2019-05-23T02:41:28.326Z,11.80
2019-05-23T02:44:05.155Z,11.80
2019-05-23T02:46:45.433Z,11.70
2019-05-23T02:49:17.219Z,11.70
2019-05-23T02:51:46.598Z,11.70
2019-05-23T02:54:15.981Z,11.60
2019-05-23T02:56:45.962Z,11.60
2019-05-23T02:59:36.568Z,11.60
2019-05-23T03:02:50.750Z,11.60
2019-05-23T03:05:22.754Z,11.60
2019-05-23T03:07:53.277Z,11.50
2019-05-23T03:10:26.335Z,11.50
2019-05-23T03:12:58.195Z,11.50
2019-05-23T03:15:29.026Z,11.50
2019-05-23T03:18:01.867Z,11.40
2019-05-23T03:20:31.048Z,11.40
2019-05-23T03:23:06.628Z,11.40
2019-05-23T03:26:20.821Z,11.40
2019-05-23T03:28:50.244Z,11.40
2019-05-23T03:31:33.197Z,11.40
2019-05-23T03:34:03.990Z,11.30
2019-05-23T03:36:33.152Z,11.30
2019-05-23T03:39:04.014Z,11.30
2019-05-23T03:41:33.152Z,11.30
2019-05-23T03:44:04.860Z,11.20
2019-05-23T03:46:35.449Z,11.20
2019-05-23T03:49:06.382Z,11.20
2019-05-23T03:51:36.552Z,11.20
2019-05-23T03:54:06.466Z,11.20
2019-05-23T03:56:35.755Z,11.10
2019-05-23T03:59:07.660Z,11.10
2019-05-23T04:01:47.693Z,11.10
2019-05-23T04:04:09.051Z,11.10
2019-05-23T04:06:38.157Z,11.10
2019-05-23T04:09:10.037Z,11.10
2019-05-23T04:11:39.425Z,11.10
2019-05-23T04:14:09.259Z,11.10
2019-05-23T04:16:38.561Z,11.10
2019-05-23T04:19:07.668Z,11.10
2019-05-23T04:21:37.056Z,11.10
2019-05-23T04:24:06.446Z,11.10
2019-05-23T04:26:35.557Z,11.10
2019-05-23T04:29:04.773Z,11.10
2019-05-23T04:31:34.405Z,11.10
2019-05-23T04:34:06.729Z,11.10
2019-05-23T04:36:35.840Z,11.10
2019-05-23T04:39:06.567Z,11.10
2019-05-23T04:41:35.751Z,11.10
2019-05-23T04:44:05.539Z,11.10
2019-05-23T04:46:35.114Z,11.10
2019-05-23T04:49:05.106Z,11.10
2019-05-23T04:51:34.510Z,11.10
2019-05-23T04:54:04.092Z,11.10
2019-05-23T04:56:33.199Z,11.20
2019-05-23T04:59:03.345Z,11.20
2019-05-23T05:01:32.744Z,11.20
2019-05-23T05:04:04.330Z,11.20
2019-05-23T05:06:34.526Z,11.20
2019-05-23T05:09:07.582Z,11.30
2019-05-23T05:11:36.803Z,11.30
2019-05-23T05:14:06.559Z,11.30
2019-05-23T05:16:35.987Z,11.30
2019-05-23T05:19:06.599Z,11.40
2019-05-23T05:21:36.283Z,11.40
2019-05-23T05:24:05.421Z,11.40
2019-05-23T05:26:34.537Z,11.40
2019-05-23T05:29:03.738Z,11.50
2019-05-23T05:31:32.847Z,11.50
2019-05-23T05:34:01.965Z,11.50
2019-05-23T05:36:31.610Z,11.50
2019-05-23T05:39:00.875Z,11.60
2019-05-23T05:41:30.557Z,11.60
2019-05-23T05:44:00.513Z,11.70
2019-05-23T05:46:30.126Z,11.70
2019-05-23T05:48:59.386Z,11.80
2019-05-23T05:51:29.478Z,11.80
2019-05-23T05:53:58.976Z,11.80
2019-05-23T05:56:28.100Z,11.90
2019-05-23T05:58:57.231Z,11.90
2019-05-23T06:01:33.751Z,12.00
2019-05-23T06:03:57.635Z,12.00
2019-05-23T06:06:34.643Z,12.10
2019-05-23T06:09:11.382Z,12.10
2019-05-23T06:11:40.532Z,12.20
2019-05-23T06:14:09.959Z,12.20
2019-05-23T06:16:40.183Z,12.30
2019-05-23T06:19:09.601Z,12.40
2019-05-23T06:21:40.306Z,12.40
2019-05-23T06:24:09.425Z,12.40
2019-05-23T06:26:39.936Z,12.50
2019-05-23T06:29:09.341Z,12.60
2019-05-23T06:31:39.750Z,12.60
2019-05-23T06:34:08.946Z,12.70
2019-05-23T06:36:38.239Z,12.70
2019-05-23T06:39:08.860Z,12.80
2019-05-23T06:41:38.120Z,12.90
2019-05-23T06:44:08.742Z,12.90
2019-05-23T06:46:37.949Z,13.00
2019-05-23T06:49:07.290Z,13.10
2019-05-23T06:51:36.475Z,13.20
2019-05-23T06:54:05.886Z,13.20
2019-05-23T06:56:35.418Z,13.30
2019-05-23T06:59:05.078Z,13.40
2019-05-23T07:01:34.735Z,13.50
2019-05-23T07:04:05.292Z,13.50
2019-05-23T07:06:35.320Z,13.60
2019-05-23T07:09:08.961Z,13.70
2019-05-23T07:11:38.327Z,13.80
2019-05-23T07:14:08.303Z,13.90
2019-05-23T07:16:37.465Z,13.90
2019-05-23T07:19:06.637Z,14.00
2019-05-23T07:21:35.826Z,14.10
2019-05-23T07:24:05.258Z,14.20
2019-05-23T07:26:34.327Z,14.20
2019-05-23T07:29:04.035Z,14.30
2019-05-23T07:31:35.623Z,14.40
2019-05-23T07:34:07.659Z,14.50
2019-05-23T07:36:38.145Z,14.50
2019-05-23T07:39:11.480Z,14.60
2019-05-23T07:41:41.489Z,14.70
2019-05-23T07:44:11.227Z,14.80
2019-05-23T07:46:41.847Z,14.90
2019-05-23T07:49:11.587Z,15.00
2019-05-23T07:51:41.116Z,15.00
2019-05-23T07:54:29.611Z,15.10
2019-05-23T07:56:58.925Z,15.20
2019-05-23T07:59:28.032Z,15.30
2019-05-23T08:02:09.269Z,15.40
2019-05-23T08:04:39.051Z,15.50
2019-05-23T08:07:09.827Z,15.50
2019-05-23T08:09:38.962Z,15.70
2019-05-23T08:12:08.261Z,15.70
2019-05-23T08:14:38.569Z,15.80
2019-05-23T08:17:07.752Z,15.90
2019-05-23T08:19:49.154Z,16.00
2019-05-23T08:22:08.925Z,16.10
2019-05-23T08:24:38.565Z,16.20
2019-05-23T08:27:08.398Z,16.30
2019-05-23T08:29:37.916Z,16.40
2019-05-23T08:32:07.680Z,16.50
2019-05-23T08:34:42.006Z,16.60
2019-05-23T08:37:11.449Z,16.70
2019-05-23T08:39:41.829Z,16.80
2019-05-23T08:42:12.105Z,16.90
2019-05-23T08:44:41.213Z,16.90
2019-05-23T08:47:10.882Z,17.00
2019-05-23T08:49:40.296Z,17.10
2019-05-23T08:52:09.474Z,17.20
2019-05-23T08:54:40.579Z,17.30
2019-05-23T08:57:11.179Z,17.40
2019-05-23T08:59:40.554Z,17.50
2019-05-23T09:02:11.816Z,17.50
2019-05-23T09:05:01.172Z,17.60
2019-05-23T09:07:13.921Z,17.70
2019-05-23T09:09:43.687Z,17.80
2019-05-23T09:12:15.031Z,17.90
2019-05-23T09:14:44.499Z,18.00
2019-05-23T09:17:14.131Z,18.10
2019-05-23T09:19:43.464Z,18.20
2019-05-23T09:22:12.803Z,18.30
2019-05-23T09:24:41.980Z,18.40
2019-05-23T09:27:11.832Z,18.40
2019-05-23T09:29:41.768Z,18.50
2019-05-23T09:32:11.139Z,18.60
2019-05-23T09:34:40.368Z,18.60
2019-05-23T09:37:11.125Z,18.60
2019-05-23T09:39:40.959Z,18.70
2019-05-23T09:42:12.203Z,18.70
2019-05-23T09:44:41.053Z,18.80
2019-05-23T09:47:10.150Z,18.90
2019-05-23T09:49:39.343Z,19.00
2019-05-23T09:52:09.703Z,19.10
2019-05-23T09:54:39.181Z,19.20
2019-05-23T09:57:10.084Z,19.30
2019-05-23T09:59:39.284Z,19.40
2019-05-23T10:02:08.775Z,19.50
2019-05-23T10:04:37.884Z,19.60
2019-05-23T10:07:06.982Z,19.70
2019-05-23T10:09:36.299Z,19.80
2019-05-23T10:12:05.397Z,19.90
2019-05-23T10:14:36.358Z,20.00
2019-05-23T10:17:05.585Z,20.10
2019-05-23T10:19:34.961Z,20.20
2019-05-23T10:22:04.573Z,20.30
2019-05-23T10:24:33.985Z,20.40
2019-05-23T10:27:03.164Z,20.50
2019-05-23T10:29:32.311Z,20.60
2019-05-23T10:32:01.439Z,20.70
2019-05-23T10:34:30.569Z,20.90
2019-05-23T10:36:59.804Z,21.00
2019-05-23T10:39:29.091Z,21.10
2019-05-23T10:41:58.319Z,21.20
2019-05-23T10:44:27.772Z,21.30
2019-05-23T10:46:56.872Z,21.40
2019-05-23T10:49:26.008Z,21.50
2019-05-23T10:51:55.112Z,21.70
2019-05-23T10:54:24.294Z,21.80
2019-05-23T10:56:53.498Z,21.90
2019-05-23T10:59:23.360Z,22.10
2019-05-23T11:01:52.628Z,22.20
2019-05-23T11:04:21.811Z,22.30
2019-05-23T11:06:51.249Z,22.40
2019-05-23T11:09:36.691Z,22.50
2019-05-23T11:11:52.137Z,22.60
2019-05-23T11:14:21.254Z,22.70
2019-05-23T11:16:50.602Z,22.80
2019-05-23T11:19:19.691Z,22.90
2019-05-23T11:21:48.964Z,23.10
2019-05-23T11:24:18.365Z,23.20
2019-05-23T11:26:49.074Z,23.30
2019-05-23T11:29:18.516Z,23.50
2019-05-23T11:31:47.753Z,23.50
2019-05-23T11:34:17.503Z,23.60
2019-05-23T11:36:46.643Z,23.70
2019-05-23T11:39:16.410Z,23.80
2019-05-23T11:41:45.992Z,23.70
2019-05-23T11:44:15.450Z,23.70
2019-05-23T11:46:44.838Z,23.60
2019-05-23T11:49:14.726Z,23.60
2019-05-23T11:51:43.871Z,23.50
2019-05-23T11:54:13.098Z,23.40
2019-05-23T11:56:43.176Z,23.30
2019-05-23T11:59:12.474Z,23.20
2019-05-23T12:01:59.289Z,23.10
2019-05-23T12:04:32.731Z,23.10
2019-05-23T12:07:13.030Z,23.20
2019-05-23T12:09:42.125Z,23.20
2019-05-23T12:12:11.250Z,23.30
2019-05-23T12:14:41.894Z,23.40
2019-05-23T12:17:12.188Z,23.50
2019-05-23T12:19:41.495Z,23.60
2019-05-23T12:22:11.178Z,23.70
2019-05-23T12:24:40.339Z,23.70
2019-05-23T12:27:10.126Z,23.70
2019-05-23T12:29:39.305Z,23.70
2019-05-23T12:32:10.172Z,23.60
2019-05-23T12:34:39.261Z,23.60
2019-05-23T12:37:19.609Z,23.50
2019-05-23T12:39:39.245Z,23.50
2019-05-23T12:42:08.351Z,23.40
2019-05-23T12:44:37.438Z,23.30
2019-05-23T12:47:10.004Z,23.30
2019-05-23T12:49:58.136Z,23.20
2019-05-23T12:52:27.807Z,23.10
2019-05-23T12:54:56.924Z,23.00
2019-05-23T12:57:26.297Z,22.90
2019-05-23T12:59:55.777Z,22.90
2019-05-23T13:02:26.530Z,22.80
2019-05-23T13:04:55.657Z,22.80
2019-05-23T13:07:35.536Z,22.80
2019-05-23T13:09:56.461Z,22.90
2019-05-23T13:12:25.593Z,23.00
2019-05-23T13:14:58.772Z,23.10
2019-05-23T13:17:25.811Z,23.20
2019-05-23T13:19:54.884Z,23.30
2019-05-23T13:22:24.077Z,23.50
2019-05-23T13:24:53.597Z,23.70
2019-05-23T13:27:23.288Z,23.80
2019-05-23T13:29:52.643Z,23.90
2019-05-23T13:32:22.139Z,24.10
2019-05-23T13:34:51.221Z,24.20
2019-05-23T13:37:21.221Z,24.30
2019-05-23T13:39:50.510Z,24.40
2019-05-23T13:42:19.613Z,24.50
2019-05-23T13:44:49.928Z,24.50
2019-05-23T13:47:18.973Z,24.60
2019-05-23T13:49:48.065Z,24.70
2019-05-23T13:52:17.176Z,24.80
2019-05-23T13:54:46.272Z,24.90
2019-05-23T13:57:15.711Z,24.90
2019-05-23T13:59:44.849Z,25.00
2019-05-23T14:02:14.278Z,25.10
2019-05-23T14:04:43.601Z,25.20
2019-05-23T14:07:13.009Z,25.20
2019-05-23T14:09:42.277Z,25.30
2019-05-23T14:12:27.029Z,25.40
2019-05-23T14:14:42.770Z,25.40
2019-05-23T14:17:43.224Z,25.40
2019-05-23T14:20:13.093Z,25.50
2019-05-23T14:22:47.601Z,25.50
2019-05-23T14:25:17.702Z,25.50
2019-05-23T14:27:53.042Z,25.50
2019-05-23T14:30:44.517Z,25.40
2019-05-23T14:33:34.345Z,25.30
2019-05-23T14:36:05.429Z,25.20
2019-05-23T14:38:36.151Z,25.10
2019-05-23T14:41:05.376Z,25.00
2019-05-23T14:43:34.990Z,24.90
2019-05-23T14:46:13.195Z,24.90
2019-05-23T14:49:13.737Z,24.80
2019-05-23T14:52:13.970Z,24.90
2019-05-23T14:54:46.400Z,24.90
2019-05-23T14:57:16.209Z,24.90
2019-05-23T14:59:45.983Z,25.00
2019-05-23T15:02:18.689Z,25.00
2019-05-23T15:04:47.848Z,25.00
2019-05-23T15:07:17.033Z,25.10
2019-05-23T15:09:46.139Z,25.20
2019-05-23T15:12:15.323Z,25.20
2019-05-23T15:14:44.532Z,25.30
2019-05-23T15:17:13.881Z,25.40
2019-05-23T15:19:45.387Z,25.40
2019-05-23T15:22:13.973Z,25.40
2019-05-23T15:24:43.163Z,25.50
2019-05-23T15:27:12.273Z,25.50
2019-05-23T15:29:41.488Z,25.60
2019-05-23T15:32:10.619Z,25.60
2019-05-23T15:34:39.775Z,25.70
2019-05-23T15:37:09.147Z,25.70
2019-05-23T15:39:38.645Z,25.70
2019-05-23T15:42:07.723Z,25.70
2019-05-23T15:44:36.871Z,25.70
2019-05-23T15:47:06.613Z,25.70
2019-05-23T15:49:36.648Z,25.70
2019-05-23T15:52:14.760Z,25.60
2019-05-23T15:54:48.361Z,25.60
2019-05-23T15:57:36.677Z,25.50
2019-05-23T16:00:13.869Z,25.40
2019-05-23T16:02:49.722Z,25.40
2019-05-23T16:05:18.970Z,25.30
2019-05-23T16:07:48.187Z,25.30
2019-05-23T16:10:18.043Z,25.20
2019-05-23T16:12:47.123Z,25.20
2019-05-23T16:15:16.508Z,25.20
2019-05-23T16:17:45.675Z,25.10
2019-05-23T16:20:14.813Z,25.10
2019-05-23T16:22:44.022Z,25.00
2019-05-23T16:25:13.684Z,25.00
2019-05-23T16:27:43.050Z,24.80
2019-05-23T16:30:12.356Z,24.70
2019-05-23T16:32:41.474Z,24.60
2019-05-23T16:35:10.714Z,24.50
2019-05-23T16:37:39.856Z,24.40
2019-05-23T16:40:09.458Z,24.30
2019-05-23T16:42:38.551Z,24.20
2019-05-23T16:45:07.940Z,24.10
2019-05-23T16:47:37.254Z,24.10
2019-05-23T16:50:07.030Z,24.00
2019-05-23T16:52:36.632Z,23.90
2019-05-23T16:55:09.973Z,23.90
2019-05-23T16:57:55.574Z,23.80
2019-05-23T17:00:44.935Z,23.70
2019-05-23T17:03:33.084Z,23.70
2019-05-23T17:06:23.198Z,23.60
2019-05-23T17:09:03.030Z,23.50
2019-05-23T17:11:46.710Z,23.50
2019-05-23T17:14:23.847Z,23.40
2019-05-23T17:17:05.638Z,23.40
2019-05-23T17:19:52.784Z,23.40
2019-05-23T17:22:35.100Z,23.30
2019-05-23T17:25:21.914Z,23.30
2019-05-23T17:27:57.710Z,23.30
2019-05-23T17:30:35.744Z,23.20
2019-05-23T17:33:05.337Z,23.20
2019-05-23T17:35:34.798Z,23.20
2019-05-23T17:38:03.904Z,23.20
2019-05-23T17:40:33.084Z,23.20
2019-05-23T17:43:02.272Z,23.20
2019-05-23T17:45:31.982Z,23.20
2019-05-23T17:48:01.194Z,23.20
2019-05-23T17:50:34.535Z,23.20
2019-05-23T17:53:02.048Z,23.20
2019-05-23T17:55:32.460Z,23.20
2019-05-23T17:58:01.668Z,23.20
2019-05-23T18:00:41.913Z,23.20
2019-05-23T18:03:11.331Z,23.20
2019-05-23T18:05:40.838Z,23.10
2019-05-23T18:08:10.999Z,23.10
2019-05-23T18:10:45.291Z,23.10
2019-05-23T18:13:12.112Z,23.10
2019-05-23T18:15:42.251Z,23.00
2019-05-23T18:18:11.522Z,23.00
2019-05-23T18:20:40.723Z,23.00
2019-05-23T18:23:10.294Z,23.00
2019-05-23T18:25:39.705Z,22.90
2019-05-23T18:28:09.379Z,22.80
2019-05-23T18:31:06.927Z,22.80
2019-05-23T18:33:33.595Z,22.70
2019-05-23T18:36:03.666Z,22.60
2019-05-23T18:38:33.541Z,22.50
2019-05-23T18:41:08.764Z,22.40
2019-05-23T18:43:34.850Z,22.30
2019-05-23T18:46:08.438Z,22.20
2019-05-23T18:48:37.711Z,22.10
2019-05-23T18:51:07.012Z,22.00
2019-05-23T18:53:36.343Z,21.90
2019-05-23T18:56:05.692Z,21.80
2019-05-23T18:58:34.898Z,21.70
2019-05-23T19:01:16.303Z,21.50
2019-05-23T19:03:45.778Z,21.40
2019-05-23T19:06:14.894Z,21.30
2019-05-23T19:08:44.312Z,21.20
2019-05-23T19:11:20.914Z,21.10
2019-05-23T19:13:44.987Z,20.90
2019-05-23T19:16:14.168Z,20.90
2019-05-23T19:18:44.473Z,20.70
2019-05-23T19:21:15.241Z,20.60
2019-05-23T19:23:44.623Z,20.50
2019-05-23T19:26:14.016Z,20.50
2019-05-23T19:28:44.624Z,20.40
2019-05-23T19:31:14.519Z,20.30
2019-05-23T19:33:45.349Z,20.20
2019-05-23T19:36:15.121Z,20.10
2019-05-23T19:38:44.367Z,20.10
2019-05-23T19:41:14.662Z,20.00
2019-05-23T19:43:47.937Z,19.90
2019-05-23T19:46:14.855Z,19.80
2019-05-23T19:48:44.894Z,19.70
2019-05-23T19:51:14.420Z,19.60
2019-05-23T19:53:43.649Z,19.60
2019-05-23T19:56:12.788Z,19.50
2019-05-23T19:58:42.423Z,19.40
2019-05-23T20:01:11.913Z,19.40
2019-05-23T20:03:41.550Z,19.30
2019-05-23T20:06:11.878Z,19.20
2019-05-23T20:08:41.643Z,19.20
2019-05-23T20:11:11.104Z,19.10
2019-05-23T20:13:40.308Z,19.00
2019-05-23T20:16:09.643Z,19.00
2019-05-23T20:18:38.981Z,19.00
2019-05-23T20:21:08.402Z,18.90
2019-05-23T20:23:37.710Z,18.80
2019-05-23T20:26:08.098Z,18.80
2019-05-23T20:28:39.990Z,18.70
2019-05-23T20:31:09.334Z,18.70
2019-05-23T20:33:38.599Z,18.60
2019-05-23T20:36:13.308Z,18.60
2019-05-23T20:38:42.809Z,18.60
2019-05-23T20:41:12.313Z,18.50
2019-05-23T20:43:41.493Z,18.50
2019-05-23T20:46:10.615Z,18.50
2019-05-23T20:48:40.827Z,18.40
2019-05-23T20:51:10.028Z,18.40
2019-05-23T20:53:39.597Z,18.40
2019-05-23T20:56:08.932Z,18.30
2019-05-23T20:58:38.151Z,18.30
2019-05-23T21:01:25.396Z,18.20
2019-05-23T21:03:55.781Z,18.20
2019-05-23T21:06:24.961Z,18.20
2019-05-23T21:08:54.106Z,18.10
2019-05-23T21:11:23.397Z,18.10
2019-05-23T21:13:52.505Z,18.10
2019-05-23T21:16:21.801Z,18.10
2019-05-23T21:18:56.699Z,18.10
2019-05-23T21:21:25.900Z,18.10
2019-05-23T21:23:57.053Z,18.00
2019-05-23T21:26:25.918Z,18.00
2019-05-23T21:28:55.094Z,18.00
2019-05-23T21:31:25.963Z,17.90
2019-05-23T21:33:55.225Z,17.90
2019-05-23T21:36:24.321Z,17.90
2019-05-23T21:38:53.460Z,17.90
2019-05-23T21:41:22.703Z,17.90
2019-05-23T21:43:54.066Z,17.90
2019-05-23T21:46:23.481Z,17.90
2019-05-23T21:48:52.577Z,17.90
2019-05-23T21:51:21.790Z,17.80
2019-05-23T21:53:51.067Z,17.80
2019-05-23T21:56:20.230Z,17.80
2019-05-23T21:58:49.357Z,17.80
2019-05-23T22:01:38.792Z,17.80
2019-05-23T22:04:28.743Z,17.80
2019-05-23T22:07:02.618Z,17.80
2019-05-23T22:09:32.146Z,17.70
2019-05-23T22:12:01.547Z,17.70
2019-05-23T22:14:31.086Z,17.70
2019-05-23T22:17:00.239Z,17.70
2019-05-23T22:19:30.199Z,17.70
2019-05-23T22:21:59.827Z,17.70
2019-05-23T22:24:29.046Z,17.70
2019-05-23T22:26:58.178Z,17.70
2019-05-23T22:29:27.284Z,17.60
2019-05-23T22:31:56.734Z,17.60
2019-05-23T22:34:46.100Z,17.60
2019-05-23T22:37:17.701Z,17.60
2019-05-23T22:39:46.784Z,17.50
2019-05-23T22:42:17.700Z,17.60
2019-05-23T22:44:46.825Z,17.50
2019-05-23T22:47:16.095Z,17.50
2019-05-23T22:49:45.287Z,17.50
2019-05-23T22:52:14.411Z,17.50
2019-05-23T22:54:43.538Z,17.40
2019-05-23T22:57:13.054Z,17.40
2019-05-23T22:59:42.573Z,17.40
2019-05-23T23:02:14.828Z,17.40
2019-05-23T23:04:43.930Z,17.40
2019-05-23T23:07:13.378Z,17.40
2019-05-23T23:09:42.467Z,17.40
2019-05-23T23:12:11.703Z,17.30
2019-05-23T23:14:40.923Z,17.40
2019-05-23T23:17:10.105Z,17.30
2019-05-23T23:19:39.351Z,17.30
2019-05-23T23:22:11.089Z,17.30
2019-05-23T23:24:40.239Z,17.30
2019-05-23T23:27:09.431Z,17.30
2019-05-23T23:29:39.772Z,17.20
2019-05-23T23:32:10.881Z,17.20
2019-05-23T23:34:40.012Z,17.10
2019-05-23T23:37:09.130Z,17.10
2019-05-23T23:39:38.270Z,17.10
2019-05-23T23:42:08.033Z,17.10
2019-05-23T23:44:36.358Z,17.00
2019-05-23T23:47:23.937Z,16.90
2019-05-23T23:50:10.669Z,16.90
2019-05-23T23:52:57.918Z,16.90
2019-05-23T23:55:44.747Z,16.80
2019-05-23T23:58:13.230Z,16.80
